Makarewa, New Zealand
Current Conditions -  °F | °C
As of 8:00 PM on Friday 24 Oct 2014 (Local Time) from NZCH Reporting Station
Clear Clear  
Wind Chill: 36°   Ceiling: Unl
Heat Index: 41°   Visibility: 6mi
Dew Point: 36°   Wind: 7mph
Humidity: 81%   Direction: 220°SW
Pressure: 30.18"   Gusts: NA
Location:  46.33°S, 168.35°E
Report Text: NZCH 240800Z AUTO 22006KT 9999 NCD 05/02 Q1022 NOSIG
Loading
Personal Weather Stations






























Interactive Weather Map
Tropical Storm Tracking
New forecast layout! Learn more

10-Day Weather Forecast

Advertisements
Track Severe Weather on mobile